Time;durP1;ratioP1;P1;durP2;ratioP2;P2;SDS_P1;SDS_P2;PMS_P1;PMS_P2;Temp;Humidity;BMP_temperature;BMP_pressure;BME280_temperature;BME280_humidity;BME280_pressure;Samples;Min_cycle;Max_cycle;Signal;HPM_P1;HPM_P2
2023/09/21 07:32:41;;;;;;;50.28;5.68;;;;;;;18.69;88.92;95442.06;2102834;27;20564;-66
2023/09/21 07:33:43;;;;;;;61.55;5.93;;;;;;;18.91;88.52;95441.69;2096129;28;20273;-67
2023/09/21 07:34:48;;;;;;;71.55;6.78;;;;;;;19.08;88.00;95433.91;2095948;28;20669;-67
2023/09/21 07:35:51;;;;;;;111.72;9.27;;;;;;;19.20;87.35;95435.38;2091937;28;20658;-66
2023/09/21 07:38:05;;;;;;;120.57;8.77;;;;;;;19.25;86.50;95430.44;2100334;27;20576;-66
2023/09/21 07:40:31;;;;;;;101.72;7.25;;;;;;;19.49;85.62;95430.78;2091909;27;20580;-67
2023/09/21 07:41:34;;;;;;;87.15;7.80;;;;;;;19.60;85.52;95430.56;2083347;28;20228;-67
2023/09/21 07:42:35;;;;;;;79.00;8.52;;;;;;;19.72;84.23;95429.31;2082535;28;20696;-67
2023/09/21 07:43:37;;;;;;;77.30;10.02;;;;;;;19.87;83.85;95429.63;2080290;28;20194;-67
2023/09/21 07:44:38;;;;;;;66.60;8.05;;;;;;;19.98;83.22;95425.06;2079356;28;20709;-67
2023/09/21 07:45:40;;;;;;;82.93;8.73;;;;;;;20.01;82.05;95428.22;2080352;28;20238;-66
2023/09/21 07:46:42;;;;;;;57.05;7.05;;;;;;;20.09;82.21;95429.25;2079022;28;20303;-67
2023/09/21 07:47:46;;;;;;;62.67;6.32;;;;;;;20.08;81.87;95436.38;2081408;28;20271;-67
2023/09/21 07:48:51;;;;;;;30.27;4.45;;;;;;;20.15;80.34;95428.63;2082380;28;20764;-67
2023/09/21 07:49:55;;;;;;;30.65;4.50;;;;;;;19.97;83.17;95431.34;2080705;28;20201;-67
2023/09/21 07:52:04;;;;;;;53.95;4.78;;;;;;;19.93;82.32;95430.00;2100020;27;20562;-67
2023/09/21 07:54:17;;;;;;;12.40;3.83;;;;;;;19.65;83.59;95420.34;2090093;28;20574;-67
2023/09/21 07:56:36;;;;;;;23.55;4.20;;;;;;;19.68;84.25;95435.94;2084643;28;20572;-67
2023/09/21 07:57:39;;;;;;;21.25;4.28;;;;;;;19.65;84.60;95432.75;2082781;28;20197;-67
2023/09/21 07:58:41;;;;;;;17.02;4.05;;;;;;;19.71;85.20;95440.09;2082884;28;20207;-67
2023/09/21 07:59:43;;;;;;;19.60;4.03;;;;;;;19.77;80.85;95433.31;2084303;28;20189;-67
2023/09/21 08:00:44;;;;;;;16.73;4.38;;;;;;;20.04;81.69;95429.72;2080357;28;20634;-67
2023/09/21 08:01:48;;;;;;;19.13;4.75;;;;;;;20.21;80.77;95434.13;2070865;28;20198;-67
2023/09/21 08:02:50;;;;;;;24.98;5.30;;;;;;;20.41;79.03;95427.75;2071430;28;20198;-67
2023/09/21 08:03:52;;;;;;;9.30;3.28;;;;;;;20.59;77.82;95427.66;2074992;28;20214;-67
2023/09/21 08:04:57;;;;;;;23.65;4.13;;;;;;;20.80;78.18;95429.91;2074325;28;20766;-67
2023/09/21 08:05:59;;;;;;;11.18;3.35;;;;;;;20.94;76.81;95423.97;2071647;28;20780;-67
2023/09/21 08:07:01;;;;;;;29.25;3.90;;;;;;;21.07;76.30;95428.00;2073746;28;20538;-67
2023/09/21 08:08:03;;;;;;;12.63;3.03;;;;;;;21.14;76.28;95418.34;2073953;28;20255;-67
2023/09/21 08:09:04;;;;;;;19.60;3.60;;;;;;;21.15;74.39;95414.72;2074242;28;20211;-67
2023/09/21 08:10:26;;;;;;;9.65;2.40;;;;;;;20.99;72.99;95415.53;2075046;28;20208;-67
2023/09/21 08:11:28;;;;;;;14.90;3.00;;;;;;;21.20;72.27;95415.91;2070056;28;20309;-67
2023/09/21 08:12:30;;;;;;;5.05;2.50;;;;;;;20.84;71.14;95413.50;2070950;28;20189;-67
2023/09/21 08:13:33;;;;;;;4.25;2.50;;;;;;;20.90;71.79;95419.16;2070636;28;20197;-67
2023/09/21 08:14:35;;;;;;;7.63;2.83;;;;;;;21.26;70.97;95411.75;2071718;28;20791;-67
2023/09/21 08:15:37;;;;;;;17.35;3.25;;;;;;;21.22;71.06;95413.06;2076392;28;20204;-67
2023/09/21 08:16:38;;;;;;;11.40;3.33;;;;;;;21.15;71.01;95412.91;2074507;28;20210;-67
2023/09/21 08:17:40;;;;;;;8.60;2.60;;;;;;;21.39;71.02;95411.25;2077894;28;20197;-67
2023/09/21 08:18:42;;;;;;;17.67;3.30;;;;;;;21.59;70.92;95409.13;2078328;28;20288;-67
2023/09/21 08:19:44;;;;;;;7.72;2.78;;;;;;;21.61;70.83;95412.44;2074660;28;20208;-67
2023/09/21 08:20:46;;;;;;;8.63;2.60;;;;;;;21.67;71.31;95400.31;2072439;28;20193;-67
2023/09/21 08:21:48;;;;;;;13.13;2.58;;;;;;;22.09;70.33;95409.03;2072727;28;20654;-67
2023/09/21 08:22:49;;;;;;;10.68;2.80;;;;;;;22.71;68.12;95415.47;2076319;28;20201;-67
2023/09/21 08:23:51;;;;;;;10.68;2.67;;;;;;;22.61;67.59;95410.38;2075573;28;20649;-67
2023/09/21 08:24:53;;;;;;;10.88;2.47;;;;;;;22.79;67.04;95415.44;2075306;28;20671;-67
2023/09/21 08:25:54;;;;;;;17.35;2.55;;;;;;;22.58;67.28;95422.19;2074288;28;20222;-66
2023/09/21 08:26:56;;;;;;;6.90;2.40;;;;;;;22.62;67.57;95410.19;2075495;28;20197;-66
2023/09/21 08:27:59;;;;;;;11.13;2.15;;;;;;;22.32;67.90;95414.44;2070694;28;20194;-66
2023/09/21 08:29:01;;;;;;;6.68;2.53;;;;;;;22.03;68.74;95415.88;2072903;28;20308;-66
2023/09/21 08:30:04;;;;;;;14.23;2.60;;;;;;;21.97;69.33;95420.03;2074943;28;20206;-66
2023/09/21 08:31:09;;;;;;;6.70;2.80;;;;;;;21.87;69.40;95419.38;2072811;28;20226;-66
2023/09/21 08:32:10;;;;;;;8.38;2.30;;;;;;;21.69;69.91;95423.03;2072559;28;20209;-66
2023/09/21 08:33:12;;;;;;;6.55;2.88;;;;;;;21.59;71.32;95425.06;2072525;28;20697;-66
2023/09/21 08:34:16;;;;;;;9.00;2.45;;;;;;;21.56;70.28;95428.06;2072881;28;20209;-67
2023/09/21 08:35:17;;;;;;;6.88;2.80;;;;;;;21.59;70.37;95427.72;2073193;28;20646;-66
2023/09/21 08:36:19;;;;;;;4.70;2.65;;;;;;;21.28;70.81;95438.13;2072065;28;20226;-66
2023/09/21 08:37:20;;;;;;;10.63;5.45;;;;;;;21.31;71.68;95433.31;2070540;28;20217;-66
2023/09/21 08:38:23;;;;;;;8.25;2.97;;;;;;;21.22;72.24;95439.63;2071659;28;20263;-66
2023/09/21 08:39:25;;;;;;;5.53;2.65;;;;;;;21.12;72.57;95444.25;2070754;28;20294;-66
2023/09/21 08:40:29;;;;;;;5.38;2.28;;;;;;;21.12;73.84;95444.25;2071000;28;20209;-66
2023/09/21 08:41:32;;;;;;;12.45;2.60;;;;;;;21.24;72.85;95442.91;2073017;28;20305;-66
2023/09/21 08:42:35;;;;;;;7.10;3.10;;;;;;;21.06;72.78;95437.75;2073112;28;20224;-67
2023/09/21 08:43:37;;;;;;;4.72;2.70;;;;;;;21.11;72.95;95445.25;2074115;28;20242;-66
2023/09/21 08:44:40;;;;;;;10.35;2.80;;;;;;;21.22;72.23;95447.56;2070477;28;20344;-66
2023/09/21 08:45:42;;;;;;;8.00;2.53;;;;;;;21.29;72.32;95437.97;2070596;28;20205;-66
2023/09/21 08:46:45;;;;;;;4.40;2.22;;;;;;;21.30;71.34;95439.59;2075609;28;20722;-66
2023/09/21 08:47:48;;;;;;;3.70;2.28;;;;;;;21.27;70.96;95441.75;2072994;28;20209;-66
2023/09/21 08:48:50;;;;;;;6.03;2.55;;;;;;;21.53;71.69;95438.97;2072163;28;20268;-66
2023/09/21 08:49:52;;;;;;;5.00;2.40;;;;;;;21.48;70.74;95428.00;2073984;28;20284;-66
2023/09/21 08:50:55;;;;;;;6.20;2.47;;;;;;;21.47;70.62;95431.66;2073092;28;20232;-66
2023/09/21 08:52:00;;;;;;;8.40;2.92;;;;;;;21.47;71.65;95431.66;2074465;28;20251;-66
2023/09/21 08:53:03;;;;;;;7.20;2.95;;;;;;;21.57;70.60;95421.72;2074380;28;20198;-66
2023/09/21 08:54:07;;;;;;;5.40;2.10;;;;;;;21.44;70.63;95414.22;2073178;28;20201;-66
2023/09/21 08:55:10;;;;;;;5.57;2.80;;;;;;;21.46;71.94;95416.75;2072144;28;20201;-66
2023/09/21 08:56:12;;;;;;;6.18;2.38;;;;;;;21.59;71.11;95411.78;2072036;28;20248;-67
2023/09/21 08:57:14;;;;;;;6.28;2.05;;;;;;;21.59;71.76;95405.66;2073606;28;20248;-66
2023/09/21 08:58:20;;;;;;;6.32;2.33;;;;;;;21.56;70.83;95411.28;2072297;28;20210;-66
2023/09/21 08:59:23;;;;;;;5.85;2.40;;;;;;;21.47;72.69;95400.63;2072238;28;20216;-66
2023/09/21 09:00:27;;;;;;;5.50;2.20;;;;;;;21.68;71.35;95401.97;2073395;28;20674;-66
2023/09/21 09:01:29;;;;;;;5.47;2.78;;;;;;;21.68;71.16;95400.13;2072735;28;20225;-66
2023/09/21 09:02:31;;;;;;;9.00;2.30;;;;;;;21.92;71.43;95405.59;2071625;28;20198;-66
2023/09/21 09:03:34;;;;;;;3.47;1.80;;;;;;;22.06;70.56;95404.06;2070592;28;20281;-67
2023/09/21 09:04:36;;;;;;;7.15;2.70;;;;;;;22.15;70.90;95403.03;2071305;28;20209;-66
2023/09/21 09:05:38;;;;;;;5.60;2.65;;;;;;;22.25;69.09;95400.19;2072361;28;20240;-66
2023/09/21 09:06:40;;;;;;;4.68;2.35;;;;;;;22.16;69.89;95396.72;2071142;28;20239;-68
2023/09/21 09:07:42;;;;;;;10.38;1.95;;;;;;;22.01;70.75;95401.91;2067001;28;20202;-67
2023/09/21 09:08:46;;;;;;;5.80;2.75;;;;;;;22.27;68.82;95396.38;2068151;28;20601;-67
2023/09/21 09:09:48;;;;;;;4.70;2.10;;;;;;;21.99;69.42;95398.59;2068380;28;20259;-66
2023/09/21 09:10:53;;;;;;;6.43;2.10;;;;;;;21.87;67.89;95389.34;2065352;28;20232;-66
2023/09/21 09:11:56;;;;;;;8.82;2.35;;;;;;;21.53;68.50;95392.00;2066146;28;20933;-66
2023/09/21 09:13:05;;;;;;;3.63;2.17;;;;;;;21.53;68.90;95399.13;2068502;28;20246;-66
2023/09/21 09:14:18;;;;;;;2.65;1.63;;;;;;;21.40;68.87;95389.00;2066205;28;20264;-67
2023/09/21 09:15:33;;;;;;;9.80;2.25;;;;;;;21.38;69.15;95396.31;2064865;28;20205;-66
2023/09/21 09:16:34;;;;;;;3.75;2.10;;;;;;;21.33;69.54;95393.31;2066134;28;20213;-67
2023/09/21 09:17:36;;;;;;;3.22;1.85;;;;;;;21.35;69.96;95391.34;2068202;28;20212;-67
2023/09/21 09:18:38;;;;;;;3.92;1.80;;;;;;;21.39;69.50;95397.97;2067320;28;20653;-66
2023/09/21 09:19:40;;;;;;;4.72;2.30;;;;;;;21.44;69.52;95397.47;2067579;28;20733;-67
2023/09/21 09:20:44;;;;;;;4.82;1.95;;;;;;;21.55;69.66;95397.19;2067713;28;20233;-66
2023/09/21 09:21:47;;;;;;;5.97;2.35;;;;;;;21.58;69.39;95385.38;2068274;28;20205;-66
2023/09/21 09:22:51;;;;;;;5.32;2.30;;;;;;;21.89;68.14;95382.84;2067073;28;20304;-66
2023/09/21 09:23:52;;;;;;;5.20;2.22;;;;;;;22.17;67.82;95385.09;2063900;28;20280;-67
2023/09/21 09:24:55;;;;;;;5.00;2.28;;;;;;;22.14;68.10;95388.09;2064280;28;20269;-66
2023/09/21 09:25:57;;;;;;;3.28;1.92;;;;;;;22.33;67.06;95379.72;2066684;28;20284;-66
2023/09/21 09:26:58;;;;;;;4.25;1.88;;;;;;;22.63;67.34;95374.59;2068731;28;20194;-66
2023/09/21 09:28:03;;;;;;;3.83;2.30;;;;;;;22.62;66.56;95375.59;2067796;28;20197;-67
2023/09/21 09:29:07;;;;;;;6.15;2.63;;;;;;;22.57;67.71;95374.50;2063899;28;20665;-67
2023/09/21 09:30:11;;;;;;;7.57;1.90;;;;;;;22.82;67.00;95367.19;2064894;28;20245;-66
2023/09/21 09:31:14;;;;;;;8.25;2.13;;;;;;;22.79;66.26;95372.84;2066754;28;20712;-66
2023/09/21 09:32:18;;;;;;;4.78;2.20;;;;;;;22.75;66.66;95379.53;2066645;28;20335;-67
2023/09/21 09:33:25;;;;;;;6.00;1.83;;;;;;;22.23;68.42;95373.75;2067178;28;20208;-66
2023/09/21 09:34:28;;;;;;;3.78;2.10;;;;;;;22.64;67.44;95370.13;2066229;28;20282;-66
2023/09/21 09:35:30;;;;;;;3.92;2.13;;;;;;;22.30;67.78;95366.75;2066974;28;20212;-66
2023/09/21 09:36:35;;;;;;;5.40;2.60;;;;;;;22.38;68.49;95362.44;2065684;28;20644;-66
2023/09/21 09:37:37;;;;;;;4.55;2.15;;;;;;;22.33;68.71;95365.59;2067339;28;20229;-67
2023/09/21 09:38:39;;;;;;;3.60;2.00;;;;;;;22.27;66.43;95364.47;2068211;28;20197;-67
2023/09/21 09:39:40;;;;;;;3.17;1.80;;;;;;;22.48;66.20;95355.09;2069514;28;20822;-67
2023/09/21 09:40:42;;;;;;;3.53;1.88;;;;;;;22.43;67.59;95366.22;2064416;28;20205;-66
2023/09/21 09:41:44;;;;;;;6.47;2.88;;;;;;;22.02;69.00;95364.53;2066686;28;20194;-66
2023/09/21 09:42:48;;;;;;;6.15;2.60;;;;;;;22.09;68.69;95361.19;2066792;28;20297;-67
2023/09/21 09:43:56;;;;;;;10.07;2.00;;;;;;;22.18;67.15;95362.81;2067968;28;20211;-67
2023/09/21 09:45:03;;;;;;;5.68;1.90;;;;;;;21.84;67.79;95363.94;2067466;28;20212;-67
2023/09/21 09:46:08;;;;;;;7.47;2.08;;;;;;;21.65;69.44;95350.00;2064976;28;20257;-67
2023/09/21 09:47:16;;;;;;;4.82;1.65;;;;;;;21.78;69.79;95361.97;2065165;28;20232;-67
2023/09/21 09:48:19;;;;;;;5.18;2.00;;;;;;;21.97;69.73;95358.09;2067437;28;20206;-67
2023/09/21 09:49:26;;;;;;;5.63;2.22;;;;;;;21.77;69.46;95350.47;2066840;28;20194;-67
2023/09/21 09:50:33;;;;;;;4.85;2.30;;;;;;;21.62;70.42;95349.53;2067533;28;20299;-67
2023/09/21 09:51:41;;;;;;;3.80;1.75;;;;;;;21.68;70.71;95349.66;2067102;28;20218;-67
2023/09/21 09:52:50;;;;;;;6.25;2.08;;;;;;;21.56;70.84;95340.41;2068993;28;20237;-67
2023/09/21 09:53:53;;;;;;;7.43;2.30;;;;;;;21.67;71.11;95344.53;2063560;28;20210;-67
2023/09/21 09:54:56;;;;;;;8.45;2.30;;;;;;;21.87;70.29;95347.66;2065262;28;20278;-67
2023/09/21 09:56:00;;;;;;;7.18;2.35;;;;;;;21.73;69.25;95346.50;2067012;28;20253;-67
2023/09/21 09:57:04;;;;;;;4.95;1.85;;;;;;;21.79;69.92;95348.50;2066186;28;20221;-67
2023/09/21 09:58:09;;;;;;;7.80;2.30;;;;;;;21.99;68.85;95346.28;2066842;28;20197;-67
2023/09/21 09:59:12;;;;;;;4.63;2.13;;;;;;;21.97;68.49;95350.13;2065738;28;20202;-67
2023/09/21 10:00:21;;;;;;;9.07;2.25;;;;;;;22.22;68.20;95352.66;2066250;28;20206;-67
2023/09/21 10:01:25;;;;;;;11.43;2.13;;;;;;;22.17;67.20;95346.03;2063213;28;20252;-67
2023/09/21 10:02:28;;;;;;;7.20;2.20;;;;;;;22.16;67.50;95346.22;2066699;28;20207;-67
2023/09/21 10:03:32;;;;;;;3.25;1.85;;;;;;;22.15;66.04;95349.88;2067485;28;20240;-67
2023/09/21 10:04:36;;;;;;;12.95;1.92;;;;;;;22.20;67.28;95347.53;2066857;28;20259;-67
2023/09/21 10:05:39;;;;;;;4.95;2.05;;;;;;;22.33;67.31;95350.47;2066117;28;20202;-66
2023/09/21 10:06:42;;;;;;;5.00;1.90;;;;;;;22.49;66.26;95341.59;2064690;28;20233;-67
2023/09/21 10:07:46;;;;;;;8.93;2.35;;;;;;;22.49;66.65;95349.59;2065291;28;20216;-67
2023/09/21 10:08:47;;;;;;;2.95;1.65;;;;;;;22.55;66.21;95353.38;2068083;28;20198;-67
2023/09/21 10:09:49;;;;;;;8.75;2.05;;;;;;;22.94;65.80;95347.16;2068184;28;20186;-67
2023/09/21 10:10:56;;;;;;;4.47;1.90;;;;;;;23.27;64.49;95346.09;2066662;28;20194;-68
2023/09/21 10:12:00;;;;;;;2.88;1.98;;;;;;;23.48;63.82;95338.25;2071909;28;20669;-67
2023/09/21 10:13:02;;;;;;;3.53;1.77;;;;;;;23.44;63.71;95336.97;2071565;28;20221;-67
2023/09/21 10:14:03;;;;;;;3.30;1.75;;;;;;;23.02;64.38;95334.78;2068557;28;20375;-67
2023/09/21 10:15:06;;;;;;;3.20;1.85;;;;;;;23.18;64.07;95339.19;2067214;28;20612;-66
2023/09/21 10:16:09;;;;;;;3.05;1.73;;;;;;;23.21;63.64;95339.66;2067087;28;20225;-67
2023/09/21 10:17:14;;;;;;;3.92;2.45;;;;;;;22.96;65.11;95334.50;2069190;28;20194;-67
2023/09/21 10:18:35;;;;;;;7.15;2.20;;;;;;;23.38;63.30;95332.34;2066968;28;20217;-67
2023/09/21 10:19:38;;;;;;;7.03;2.20;;;;;;;23.32;64.09;95341.06;2066661;28;20198;-67
2023/09/21 10:20:41;;;;;;;8.95;2.05;;;;;;;23.21;63.83;95338.81;2067447;28;20681;-67
2023/09/21 10:21:45;;;;;;;4.35;2.13;;;;;;;23.24;64.18;95336.63;2066598;28;20892;-67
2023/09/21 10:22:47;;;;;;;4.13;1.63;;;;;;;23.43;63.05;95335.31;2067967;28;20190;-67
2023/09/21 10:24:04;;;;;;;3.40;1.83;;;;;;;23.61;61.57;95328.81;2067910;28;20201;-67
2023/09/21 10:25:06;;;;;;;4.93;2.20;;;;;;;23.64;62.40;95331.94;2068675;28;20206;-67
2023/09/21 10:26:11;;;;;;;4.97;1.80;;;;;;;23.52;62.64;95336.06;2066472;28;20279;-67
2023/09/21 10:27:13;;;;;;;4.38;2.00;;;;;;;23.22;63.67;95330.66;2069692;28;20585;-67
2023/09/21 10:28:27;;;;;;;3.47;1.63;;;;;;;23.01;64.74;95333.97;2064155;28;20206;-67
2023/09/21 10:29:36;;;;;;;5.68;2.20;;;;;;;23.55;62.71;95327.69;2067507;28;20656;-67
2023/09/21 10:30:39;;;;;;;7.05;2.17;;;;;;;23.62;62.06;95325.97;2067532;28;20236;-66
2023/09/21 10:31:53;;;;;;;3.10;1.85;;;;;;;23.62;61.85;95325.97;2068515;28;20679;-68
2023/09/21 10:32:56;;;;;;;2.88;1.52;;;;;;;23.15;62.59;95327.06;2067997;28;20197;-67
2023/09/21 10:33:58;;;;;;;3.55;1.88;;;;;;;23.27;63.04;95330.13;2068233;28;20195;-67
2023/09/21 10:35:02;;;;;;;2.70;1.70;;;;;;;23.42;62.66;95323.00;2066380;28;20203;-67
2023/09/21 10:36:04;;;;;;;4.70;2.08;;;;;;;23.71;62.18;95317.91;2066986;28;20230;-67
2023/09/21 10:37:10;;;;;;;4.85;2.10;;;;;;;23.79;61.79;95323.13;2064197;28;20206;-67
2023/09/21 10:38:13;;;;;;;4.32;1.75;;;;;;;23.66;62.40;95322.97;2070116;28;20209;-67
2023/09/21 10:39:24;;;;;;;6.95;1.92;;;;;;;23.80;61.69;95308.81;2069509;28;20412;-67
2023/09/21 10:40:27;;;;;;;6.03;1.90;;;;;;;23.37;61.58;95312.06;2067946;28;20252;-67
2023/09/21 10:41:29;;;;;;;11.60;2.08;;;;;;;23.61;61.16;95307.50;2067315;28;20308;-67
2023/09/21 10:42:33;;;;;;;5.60;1.88;;;;;;;23.77;61.71;95317.19;2064122;28;20236;-67
2023/09/21 10:43:38;;;;;;;3.25;1.73;;;;;;;23.24;62.05;95312.69;2068298;28;20864;-67
2023/09/21 10:44:52;;;;;;;3.38;1.65;;;;;;;23.02;61.17;95314.34;2067955;28;20629;-68
2023/09/21 10:45:58;;;;;;;2.53;1.30;;;;;;;22.95;62.64;95313.38;2066978;28;20222;-67
2023/09/21 10:47:00;;;;;;;5.53;1.92;;;;;;;23.41;61.72;95316.00;2064095;28;20306;-67
2023/09/21 10:48:02;;;;;;;3.85;2.08;;;;;;;23.29;61.90;95310.28;2064517;28;20195;-67
2023/09/21 10:49:04;;;;;;;5.95;1.80;;;;;;;23.43;61.59;95314.00;2067404;28;20837;-68
2023/09/21 10:50:11;;;;;;;4.63;1.63;;;;;;;23.70;61.18;95313.56;2067057;28;20214;-67
2023/09/21 10:51:12;;;;;;;3.35;1.83;;;;;;;23.76;59.66;95308.34;2066853;28;20214;-67
2023/09/21 10:52:15;;;;;;;3.15;1.52;;;;;;;23.58;60.48;95303.38;2066593;28;20198;-67
2023/09/21 10:53:17;;;;;;;5.40;1.63;;;;;;;23.75;59.73;95304.00;2063978;28;20620;-68
2023/09/21 10:54:19;;;;;;;2.78;1.45;;;;;;;23.86;59.88;95302.75;2066059;28;20710;-67
2023/09/21 10:55:24;;;;;;;4.65;1.65;;;;;;;23.92;60.07;95304.69;2064289;28;20217;-68
2023/09/21 10:56:26;;;;;;;2.13;1.20;;;;;;;23.76;58.35;95307.53;2065069;28;20324;-67
2023/09/21 10:57:29;;;;;;;6.60;1.30;;;;;;;23.65;59.02;95303.47;2067257;28;20197;-67
2023/09/21 10:58:32;;;;;;;3.08;1.40;;;;;;;23.62;59.30;95298.50;2067293;28;20217;-68
2023/09/21 10:59:33;;;;;;;4.25;1.60;;;;;;;23.54;59.03;95301.25;2066194;28;20202;-68
2023/09/21 11:00:37;;;;;;;3.42;1.40;;;;;;;23.44;58.29;95302.34;2066523;28;20206;-66
2023/09/21 11:01:39;;;;;;;4.07;2.00;;;;;;;23.41;59.14;95294.69;2067891;28;20280;-67
2023/09/21 11:02:44;;;;;;;8.65;1.85;;;;;;;23.58;58.46;95291.88;2065839;28;20557;-67
2023/09/21 11:03:48;;;;;;;1.83;1.17;;;;;;;23.35;59.10;95291.94;2068008;28;20550;-67
2023/09/21 11:04:52;;;;;;;3.22;1.40;;;;;;;23.29;59.96;95291.66;2066961;28;20206;-67
2023/09/21 11:05:54;;;;;;;2.95;1.20;;;;;;;23.40;59.81;95278.91;2066915;28;20316;-67
2023/09/21 11:06:55;;;;;;;6.15;1.45;;;;;;;23.48;59.73;95282.31;2067919;28;20205;-67
2023/09/21 11:07:58;;;;;;;3.00;1.60;;;;;;;23.45;60.06;95282.69;2066023;28;20280;-67
2023/09/21 11:09:00;;;;;;;4.97;1.50;;;;;;;23.43;57.91;95281.22;2065826;28;20213;-67
2023/09/21 11:10:06;;;;;;;7.22;1.60;;;;;;;23.50;58.37;95278.66;2068043;28;20205;-67
2023/09/21 11:11:08;;;;;;;2.95;1.20;;;;;;;23.38;58.74;95284.41;2067136;28;20301;-67
2023/09/21 11:12:17;;;;;;;3.95;1.60;;;;;;;23.53;55.89;95283.59;2067802;28;20428;-68
2023/09/21 11:13:19;;;;;;;4.53;1.52;;;;;;;23.58;56.69;95282.06;2065904;28;20216;-70
2023/09/21 11:14:22;;;;;;;4.40;1.63;;;;;;;23.89;57.53;95274.91;2067919;28;20206;-70
2023/09/21 11:15:25;;;;;;;3.83;1.85;;;;;;;24.01;57.57;95285.94;2074629;28;20196;-70
2023/09/21 11:16:26;;;;;;;4.18;1.52;;;;;;;23.85;57.57;95277.09;2070677;28;20217;-70
2023/09/21 11:17:28;;;;;;;3.53;1.55;;;;;;;23.85;57.37;95281.63;2067058;28;20198;-70
2023/09/21 11:18:30;;;;;;;4.70;1.33;;;;;;;23.95;57.50;95280.34;2066505;28;20241;-71
2023/09/21 11:19:32;;;;;;;7.45;1.88;;;;;;;24.13;57.10;95274.59;2064119;28;20195;-70
2023/09/21 11:20:33;;;;;;;2.50;1.42;;;;;;;24.05;57.07;95282.72;2063565;28;20259;-69
2023/09/21 11:21:35;;;;;;;4.93;2.08;;;;;;;24.14;56.45;95278.13;2067109;28;20199;-70
2023/09/21 11:22:39;;;;;;;7.05;3.20;;;;;;;24.13;56.03;95271.94;2066594;28;20230;-70
2023/09/21 11:23:42;;;;;;;4.72;2.75;;;;;;;24.31;55.94;95276.03;2065441;28;20202;-70
2023/09/21 11:24:45;;;;;;;5.82;1.95;;;;;;;24.48;56.11;95271.31;2066577;28;20190;-70
2023/09/21 11:25:49;;;;;;;3.70;1.90;;;;;;;24.70;55.67;95272.19;2067874;28;20611;-71
2023/09/21 11:26:54;;;;;;;4.15;1.50;;;;;;;24.78;55.38;95264.06;2066398;28;20276;-70
2023/09/21 11:27:58;;;;;;;7.68;1.95;;;;;;;24.89;54.70;95268.06;2067887;28;20199;-70
2023/09/21 11:28:59;;;;;;;3.40;2.00;;;;;;;24.87;54.40;95262.06;2066970;28;20220;-70
2023/09/21 11:30:01;;;;;;;3.90;1.48;;;;;;;24.94;54.47;95249.63;2063693;28;20292;-70
2023/09/21 11:31:05;;;;;;;7.55;1.65;;;;;;;25.05;54.71;95250.94;2063782;28;20226;-70
2023/09/21 11:32:17;;;;;;;7.75;1.80;;;;;;;25.33;54.63;95247.47;2067590;28;20202;-70
2023/09/21 11:33:19;;;;;;;3.00;1.80;;;;;;;25.33;54.13;95247.47;2067772;28;20202;-71
2023/09/21 11:34:21;;;;;;;2.40;1.20;;;;;;;25.47;54.58;95251.09;2067790;28;20641;-70
2023/09/21 11:35:26;;;;;;;4.03;1.13;;;;;;;25.88;54.04;95250.28;2065395;28;20237;-69
2023/09/21 11:36:27;;;;;;;2.95;1.30;;;;;;;25.97;53.62;95245.59;2063593;28;20827;-69
2023/09/21 11:37:31;;;;;;;2.33;1.38;;;;;;;26.42;51.94;95236.31;2065649;28;20378;-68
2023/09/21 11:38:36;;;;;;;3.97;1.58;;;;;;;26.33;51.63;95231.13;2063892;28;20269;-68
2023/09/21 11:39:48;;;;;;;4.50;1.10;;;;;;;26.33;51.66;95235.66;2064581;28;20194;-69
2023/09/21 11:40:50;;;;;;;3.70;1.63;;;;;;;26.49;51.91;95229.94;2067259;28;20202;-68
2023/09/21 11:41:51;;;;;;;10.20;1.60;;;;;;;26.42;51.86;95234.44;2068328;28;20233;-68
2023/09/21 11:42:58;;;;;;;3.05;1.50;;;;;;;26.65;51.78;95233.25;2063949;28;20233;-67
2023/09/21 11:44:06;;;;;;;1.52;1.02;;;;;;;27.10;50.25;95233.53;2065020;28;20206;-68
2023/09/21 11:45:16;;;;;;;3.20;1.38;;;;;;;27.38;49.50;95229.81;2067822;28;20804;-68
2023/09/21 11:46:19;;;;;;;2.15;1.42;;;;;;;27.19;49.42;95228.81;2066419;28;20280;-67
2023/09/21 11:47:24;;;;;;;3.30;1.60;;;;;;;26.06;50.05;95225.69;2069467;28;20289;-67
2023/09/21 11:48:29;;;;;;;4.80;1.33;;;;;;;26.20;50.46;95229.25;2067821;28;20197;-66
2023/09/21 11:49:38;;;;;;;2.40;1.30;;;;;;;26.12;52.75;95232.13;2069818;28;20615;-67
2023/09/21 11:50:43;;;;;;;3.17;1.60;;;;;;;25.77;53.36;95231.31;2065420;28;20191;-66
2023/09/21 11:51:44;;;;;;;3.22;1.75;;;;;;;25.59;50.64;95216.63;2066854;28;20199;-66
2023/09/21 11:52:50;;;;;;;5.63;1.20;;;;;;;25.80;50.62;95218.38;2067581;28;20217;-66
2023/09/21 11:53:51;;;;;;;3.00;1.40;;;;;;;25.67;50.61;95213.75;2067823;28;20248;-66
2023/09/21 11:54:53;;;;;;;3.20;1.52;;;;;;;25.64;50.83;95211.50;2067257;28;20335;-66
2023/09/21 11:55:55;;;;;;;3.65;1.38;;;;;;;25.09;50.87;95214.84;2064774;28;20237;-66
2023/09/21 11:56:56;;;;;;;2.55;1.23;;;;;;;24.85;51.49;95212.56;2064220;28;20225;-66
2023/09/21 11:58:12;;;;;;;4.72;1.58;;;;;;;25.00;51.40;95215.16;2066549;28;20642;-66
2023/09/21 11:59:15;;;;;;;3.30;1.40;;;;;;;25.04;51.61;95209.25;2068912;28;20259;-67
2023/09/21 12:00:27;;;;;;;3.60;1.52;;;;;;;24.92;52.41;95208.97;2066941;28;20209;-66
2023/09/21 12:01:29;;;;;;;5.57;2.15;;;;;;;25.02;53.32;95215.81;2067140;28;20256;-66
2023/09/21 12:02:31;;;;;;;5.97;1.58;;;;;;;25.02;53.63;95208.59;2069321;28;20261;-67
2023/09/21 12:03:33;;;;;;;4.13;1.65;;;;;;;25.07;53.10;95208.84;2067384;28;20194;-66
2023/09/21 12:04:37;;;;;;;3.40;1.33;;;;;;;24.91;51.59;95206.47;2067297;28;20234;-67
2023/09/21 12:05:43;;;;;;;2.35;1.45;;;;;;;25.09;51.58;95203.34;2066582;28;20197;-66
2023/09/21 12:06:44;;;;;;;2.88;1.40;;;;;;;25.17;51.73;95199.69;2067341;28;20234;-66
2023/09/21 12:07:46;;;;;;;3.22;1.50;;;;;;;25.04;51.56;95197.72;2067603;28;20194;-67
2023/09/21 12:08:48;;;;;;;3.17;1.20;;;;;;;25.21;51.26;95201.75;2067163;28;20248;-66
2023/09/21 12:09:51;;;;;;;2.78;1.23;;;;;;;25.44;50.81;95200.69;2067322;28;20198;-67
2023/09/21 12:10:53;;;;;;;5.68;1.50;;;;;;;25.74;50.16;95197.78;2068076;28;20295;-68
2023/09/21 12:11:55;;;;;;;5.03;2.30;;;;;;;25.65;50.42;95198.94;2064973;28;20744;-67
2023/09/21 12:12:57;;;;;;;7.82;2.97;;;;;;;25.65;50.50;95189.09;2065495;28;20210;-67
2023/09/21 12:14:01;;;;;;;4.28;2.40;;;;;;;25.94;49.63;95197.88;2065250;28;20256;-68
2023/09/21 12:15:04;;;;;;;7.05;2.75;;;;;;;26.34;49.60;95195.34;2063889;28;20661;-67
2023/09/21 12:16:06;;;;;;;10.35;2.05;;;;;;;26.35;50.52;95188.16;2064977;28;20272;-67
2023/09/21 12:17:12;;;;;;;4.45;1.65;;;;;;;26.29;50.15;95184.41;2067536;28;20209;-66
2023/09/21 12:18:14;;;;;;;6.13;1.40;;;;;;;26.54;51.41;95184.66;2066028;28;20206;-66
2023/09/21 12:19:20;;;;;;;5.78;1.75;;;;;;;26.95;50.39;95182.84;2067383;28;20271;-67
2023/09/21 12:20:21;;;;;;;16.45;9.93;;;;;;;27.08;49.57;95183.88;2067683;28;20213;-67
2023/09/21 12:21:23;;;;;;;18.67;14.27;;;;;;;27.08;48.78;95179.34;2067342;28;20225;-67
2023/09/21 12:22:26;;;;;;;6.65;3.15;;;;;;;26.99;49.77;95181.41;2068759;28;20852;-67
2023/09/21 12:23:29;;;;;;;4.55;2.20;;;;;;;26.66;50.20;95173.34;2067753;28;20202;-68
2023/09/21 12:24:34;;;;;;;6.40;1.55;;;;;;;26.34;51.42;95175.78;2068290;28;20252;-67
2023/09/21 12:25:36;;;;;;;7.22;1.48;;;;;;;26.39;50.85;95179.50;2067290;28;20202;-67
2023/09/21 12:26:37;;;;;;;5.18;1.48;;;;;;;26.52;50.19;95181.34;2067403;28;20252;-67
2023/09/21 12:27:39;;;;;;;2.67;1.45;;;;;;;26.61;50.22;95178.50;2066946;28;20205;-67
2023/09/21 12:28:42;;;;;;;6.63;1.10;;;;;;;26.79;50.18;95173.41;2065875;28;20561;-68
2023/09/21 12:29:44;;;;;;;8.68;1.95;;;;;;;27.01;49.62;95175.88;2069418;28;20887;-67
2023/09/21 12:30:48;;;;;;;3.55;1.50;;;;;;;27.08;49.01;95171.31;2066977;28;20205;-67
2023/09/21 12:31:50;;;;;;;2.92;1.55;;;;;;;27.29;48.16;95164.91;2066249;28;20225;-68
2023/09/21 12:32:59;;;;;;;2.30;1.38;;;;;;;26.63;48.32;95169.25;2066174;28;20608;-67
2023/09/21 12:34:02;;;;;;;4.15;1.73;;;;;;;26.68;48.43;95168.63;2067433;28;20202;-67
2023/09/21 12:35:10;;;;;;;3.97;1.10;;;;;;;26.90;48.68;95163.91;2063639;28;20214;-67
2023/09/21 12:36:12;;;;;;;3.90;1.52;;;;;;;26.98;47.89;95162.88;2069001;28;20225;-67
2023/09/21 12:37:24;;;;;;;5.50;1.90;;;;;;;27.62;47.07;95163.19;2068548;28;20229;-69